Etusivu
METAR-TAF:

METAR-TAF

Lentoasemat :

Childress, Texas, Yhdysvallat

Leveyspiiri: 34-25-39N, Pituuspiiri: 100-17-00W, korkeus merenpinnasta: 595 m

Tämänhetkinen sää

Tämä raportti tehtiin 39 minuuttia sitten, kello 01.53 UTC
Tuuli 8 kn etelästä/kaakosta
Lämpötila 32°C
Kosteus 41%
Ilmanpaine 1013 hPa
Näkyvyys: 16.1 km
selkeää

METAR: KCDS 060153Z AUTO 16008KT 10SM CLR 32/17 A2992 RMK AO2 SLP101 T03170167

Aika: 21:32 (02:32 UTC)

Sääennuste

Tämä raportti tehtiin 3 tuntia ja 10 minuuttia sitten, kello 23.22 UTC
Ennuste voimassa 06. päivästä klo 00 UTC - 06. päivään klo 24 UTC
Tuuli 11 kn etelästä/kaakosta
Näkyvyys: 10 km
Muutamia pilviä 25000 ft:n korkeudessa
From 06. päivästä klo 1700 UTC
Tuuli 16 kn etelästä/kaakosta
Näkyvyys: 10 km
Muutamia pilviä 25000 ft:n korkeudessa

TAF: KCDS 052322Z 0600/0624 16011KT P6SM FEW250 FM061700 16016KT P6SM FEW250

Säähavainnot ja -ennusteet yli 4000 lentoasemalta (METAR- ja TAF-raportit).

Käytössä olevat sääasemat on merkitty karttaan keltaisilla ja punaisilla pisteillä.

Aseta hiiri pisteen päälle nähdäksesi sääaseman nimen.

Klikkaa sitten nähdäksesi säähavainnot ja -ennusteet.

Kartan vaihtaminen: klikkaa mustalla rastilla varustettuja vihreitä pisteitä, niin voit zoomata sisään; viivalla varustettua vihreää pistettä, niin voit zoomata ulos tai vihreitä nuolia, niin pääset viereisille kartoille.


METAR-TAF: